createdAt,value
2023-01-08T10:56:07.555Z,91847.52
2023-01-08T10:59:02.220Z,91842.89
2023-01-08T11:01:32.309Z,91840.48
2023-01-08T11:04:06.361Z,91833.97
2023-01-08T11:07:00.131Z,91827.58
2023-01-08T11:09:48.380Z,91827.77
2023-01-08T11:12:53.431Z,91826.44
2023-01-08T11:15:36.355Z,91822.98
2023-01-08T11:18:28.411Z,91820.79
2023-01-08T11:21:34.265Z,91819.21
2023-01-08T11:24:40.735Z,91811.29
2023-01-08T11:28:10.522Z,91807.73
2023-01-08T11:30:47.541Z,91807.92
2023-01-08T11:33:35.397Z,91809.00
2023-01-08T11:36:47.052Z,91807.19
2023-01-08T11:39:33.489Z,91812.25
2023-01-08T11:42:17.793Z,91810.70
2023-01-08T11:45:03.329Z,91807.69
2023-01-08T11:47:50.235Z,91808.54
2023-01-08T11:50:43.304Z,91810.25
2023-01-08T11:54:07.976Z,91809.82
2023-01-08T11:57:09.803Z,91810.59
2023-01-08T12:00:37.826Z,91805.77
2023-01-08T12:03:58.908Z,91807.33
2023-01-08T12:07:01.927Z,91803.89
2023-01-08T12:10:16.698Z,91799.85
2023-01-08T12:13:48.756Z,91797.79
2023-01-08T12:17:38.458Z,91801.51
2023-01-08T12:21:27.438Z,91804.95
2023-01-08T12:25:02.370Z,91797.73
2023-01-08T12:28:56.469Z,91798.16
2023-01-08T12:33:06.729Z,91794.69
2023-01-08T12:36:58.835Z,91790.17
2023-01-08T12:40:54.091Z,91791.00
2023-01-08T12:44:46.145Z,91786.50
2023-01-08T12:48:20.805Z,91780.04
2023-01-08T12:51:58.131Z,91777.06
2023-01-08T12:59:36.787Z,91772.79
2023-01-08T13:02:50.682Z,91767.12
2023-01-08T13:05:44.911Z,91765.70
2023-01-08T13:09:14.018Z,91764.65
2023-01-08T13:12:28.833Z,91762.77
2023-01-08T13:15:28.495Z,91761.85
2023-01-08T13:18:57.992Z,91764.02
2023-01-08T13:22:03.870Z,91760.27
2023-01-08T13:25:56.675Z,91759.75
2023-01-08T13:33:45.172Z,91758.81
2023-01-08T13:37:37.038Z,91756.84
2023-01-08T13:41:32.469Z,91757.41
2023-01-08T13:45:21.596Z,91757.19
2023-01-08T13:49:22.780Z,91757.77
2023-01-08T13:53:10.412Z,91755.08
2023-01-08T13:56:53.886Z,91760.06
2023-01-08T14:00:26.047Z,91759.02
2023-01-08T14:04:07.200Z,91755.88
2023-01-08T14:07:53.511Z,91754.93
2023-01-08T14:11:42.774Z,91755.11
2023-01-08T14:15:31.025Z,91757.52
2023-01-08T14:19:09.511Z,91755.92
2023-01-08T14:22:53.214Z,91753.90
2023-01-08T14:26:42.451Z,91751.48
2023-01-08T14:30:26.055Z,91749.89
2023-01-08T14:34:15.316Z,91750.84
2023-01-08T14:37:58.261Z,91745.98
2023-01-08T14:41:50.870Z,91746.72
2023-01-08T14:45:40.193Z,91750.25
2023-01-08T14:49:32.508Z,91753.22
2023-01-08T14:52:36.783Z,91752.83
2023-01-08T14:56:10.027Z,91750.33
2023-01-08T14:59:52.037Z,91748.71
2023-01-08T15:03:37.246Z,91755.38
2023-01-08T15:07:25.505Z,91755.52
2023-01-08T15:11:23.678Z,91757.73
2023-01-08T15:15:12.719Z,91757.52
2023-01-08T15:19:02.016Z,91748.68
2023-01-08T15:22:51.077Z,91750.26
2023-01-08T15:26:24.557Z,91751.84
2023-01-08T15:30:13.851Z,91745.38
2023-01-08T15:33:50.886Z,91746.64
2023-01-08T15:37:22.793Z,91744.67
2023-01-08T15:41:12.259Z,91739.83
2023-01-08T15:44:44.495Z,91742.35
2023-01-08T15:48:16.243Z,91746.05
2023-01-08T15:51:08.808Z,91745.73
2023-01-08T15:54:58.251Z,91742.43
2023-01-08T15:58:47.477Z,91742.21
2023-01-08T16:02:36.803Z,91742.38
2023-01-08T16:06:26.220Z,91740.46
2023-01-08T16:10:15.337Z,91744.70
2023-01-08T16:14:04.525Z,91743.19
2023-01-08T16:17:46.247Z,91739.81
2023-01-08T16:21:07.749Z,91739.02
2023-01-08T16:24:57.069Z,91743.56
2023-01-08T16:28:46.315Z,91740.16
2023-01-08T16:32:25.565Z,91739.17
2023-01-08T16:36:06.491Z,91733.12
2023-01-08T16:39:48.521Z,91731.20
2023-01-08T16:43:17.365Z,91728.33
2023-01-08T16:47:18.846Z,91729.17
2023-01-08T16:50:55.214Z,91731.17
2023-01-08T16:54:33.144Z,91730.56
2023-01-08T16:58:22.401Z,91732.79
2023-01-08T17:02:11.718Z,91735.89
2023-01-08T17:05:43.283Z,91738.66
2023-01-08T17:09:15.316Z,91735.98
2023-01-08T17:13:04.606Z,91740.33
2023-01-08T17:16:53.872Z,91741.41
2023-01-08T17:20:35.667Z,91740.75
2023-01-08T17:24:24.938Z,91747.90
2023-01-08T17:28:16.955Z,91744.94
2023-01-08T17:31:50.539Z,91742.05
2023-01-08T17:35:13.559Z,91737.06
2023-01-08T17:38:56.891Z,91742.22
2023-01-08T17:42:46.125Z,91740.05
2023-01-08T17:46:35.265Z,91737.03
2023-01-08T17:50:24.521Z,91734.91
2023-01-08T17:54:13.677Z,91742.19
2023-01-08T17:57:39.945Z,91744.53
2023-01-08T18:01:29.340Z,91747.61
2023-01-08T18:05:10.674Z,91747.02
2023-01-08T18:09:02.635Z,91751.97
2023-01-08T18:12:52.232Z,91748.90
2023-01-08T18:16:41.551Z,91742.83
2023-01-08T18:20:03.747Z,91742.46
2023-01-08T18:23:52.689Z,91741.81
2023-01-08T18:27:34.392Z,91737.94
2023-01-08T18:31:23.679Z,91735.52
2023-01-08T18:35:03.232Z,91741.33
2023-01-08T18:38:21.990Z,91743.35
2023-01-08T18:42:10.142Z,91743.56
2023-01-08T18:45:39.882Z,91751.48
2023-01-08T18:49:02.251Z,91753.22
2023-01-08T18:52:36.235Z,91753.39
2023-01-08T18:56:25.473Z,91754.35
2023-01-08T19:00:14.730Z,91756.02
2023-01-08T19:04:21.106Z,91755.95
2023-01-08T19:08:03.188Z,91751.12
2023-01-08T19:11:29.161Z,91753.09
2023-01-08T19:15:18.355Z,91751.90
2023-01-08T19:23:14.360Z,91748.97
2023-01-08T19:27:09.530Z,91750.25
2023-01-08T19:34:53.738Z,91751.17
2023-01-08T19:38:36.968Z,91752.70
2023-01-08T19:42:07.574Z,91752.86
2023-01-08T19:45:56.802Z,91755.69
2023-01-08T19:49:46.057Z,91750.91
2023-01-08T19:53:35.417Z,91744.89
2023-01-08T19:57:15.813Z,91739.53
2023-01-08T20:00:37.356Z,91736.53
2023-01-08T20:04:26.769Z,91741.01
2023-01-08T20:08:15.992Z,91740.05
2023-01-08T20:11:58.433Z,91735.80
2023-01-08T20:15:47.829Z,91736.45
2023-01-08T20:19:37.021Z,91736.46
2023-01-08T20:23:26.238Z,91738.92
2023-01-08T20:27:05.017Z,91736.25
2023-01-08T20:30:46.650Z,91735.86
2023-01-08T20:34:36.039Z,91735.31
2023-01-08T20:38:25.344Z,91735.60
2023-01-08T20:42:22.041Z,91737.84
2023-01-08T20:46:16.786Z,91739.09
2023-01-08T20:49:35.254Z,91740.04
2023-01-08T20:53:08.533Z,91742.84
2023-01-08T20:56:45.072Z,91742.33
2023-01-08T21:00:34.633Z,91742.56
2023-01-08T21:08:06.991Z,91731.23
2023-01-08T21:11:49.965Z,91726.77
2023-01-08T21:15:39.186Z,91724.16
2023-01-08T21:19:20.211Z,91720.77
2023-01-08T21:22:45.945Z,91726.17
2023-01-08T21:26:27.044Z,91728.04
2023-01-08T21:30:07.674Z,91734.61
2023-01-08T21:33:56.922Z,91735.07
2023-01-08T21:37:44.905Z,91741.10
2023-01-08T21:41:38.285Z,91739.69
2023-01-08T21:45:15.964Z,91735.67
2023-01-08T21:48:59.042Z,91734.78
2023-01-08T21:52:46.764Z,91735.30
2023-01-08T21:56:10.710Z,91733.07
2023-01-08T21:59:41.419Z,91733.97
2023-01-08T22:03:08.311Z,91726.13
2023-01-08T22:06:25.684Z,91721.23
2023-01-08T22:09:45.449Z,91719.14
2023-01-08T22:13:28.475Z,91716.79
2023-01-08T22:17:17.746Z,91717.88
2023-01-08T22:20:46.864Z,91708.23
2023-01-08T22:24:34.542Z,91711.02
2023-01-08T22:28:16.415Z,91711.00
2023-01-08T22:32:05.488Z,91711.61
2023-01-08T22:35:34.677Z,91712.95
2023-01-08T22:39:26.988Z,91707.65
2023-01-08T22:43:19.445Z,91700.02
2023-01-08T22:47:00.359Z,91698.81
2023-01-08T22:50:55.836Z,91701.48
2023-01-08T22:54:23.889Z,91698.30
2023-01-08T22:58:13.050Z,91693.48
2023-01-08T23:01:56.153Z,91686.88
2023-01-08T23:05:26.335Z,91691.54
2023-01-08T23:09:16.706Z,91691.06
2023-01-08T23:13:05.991Z,91689.48
2023-01-08T23:16:55.247Z,91685.72
2023-01-08T23:20:36.413Z,91683.15
2023-01-08T23:24:23.263Z,91684.24
2023-01-08T23:28:02.476Z,91683.61
2023-01-08T23:31:51.838Z,91678.88
2023-01-08T23:35:30.000Z,91669.55
2023-01-08T23:39:19.360Z,91668.58
2023-01-08T23:42:50.333Z,91666.00
2023-01-08T23:46:32.228Z,91671.88
2023-01-08T23:50:21.483Z,91669.44
2023-01-08T23:54:13.610Z,91664.54
2023-01-08T23:57:57.811Z,91662.19
